sensor_id;sensor_type;location;lat;lon;timestamp;P1;durP1;ratioP1;P2;durP2;ratioP2
38940;SDS011;43236;47.208;7.518;2023-04-03T00:02:06;2.95;;;1.15;;
38940;SDS011;43236;47.208;7.518;2023-04-03T00:04:53;2.58;;;1.08;;
38940;SDS011;43236;47.208;7.518;2023-04-03T00:07:40;1.23;;;0.70;;
38940;SDS011;43236;47.208;7.518;2023-04-03T00:10:27;1.35;;;0.70;;
38940;SDS011;43236;47.208;7.518;2023-04-03T00:13:16;1.95;;;0.60;;
38940;SDS011;43236;47.208;7.518;2023-04-03T00:16:03;0.88;;;0.60;;
38940;SDS011;43236;47.208;7.518;2023-04-03T00:18:52;0.88;;;0.50;;
38940;SDS011;43236;47.208;7.518;2023-04-03T00:21:39;0.82;;;0.50;;
38940;SDS011;43236;47.208;7.518;2023-04-03T00:24:26;1.30;;;0.60;;
38940;SDS011;43236;47.208;7.518;2023-04-03T00:27:13;1.08;;;0.60;;
38940;SDS011;43236;47.208;7.518;2023-04-03T00:30:01;0.95;;;0.63;;
38940;SDS011;43236;47.208;7.518;2023-04-03T00:32:48;1.20;;;0.55;;
38940;SDS011;43236;47.208;7.518;2023-04-03T00:35:37;1.63;;;0.75;;
38940;SDS011;43236;47.208;7.518;2023-04-03T00:38:24;1.80;;;0.73;;
38940;SDS011;43236;47.208;7.518;2023-04-03T00:41:11;3.85;;;0.63;;
38940;SDS011;43236;47.208;7.518;2023-04-03T00:43:58;0.70;;;0.30;;
38940;SDS011;43236;47.208;7.518;2023-04-03T00:46:45;0.40;;;0.30;;
38940;SDS011;43236;47.208;7.518;2023-04-03T00:49:32;0.77;;;0.30;;
38940;SDS011;43236;47.208;7.518;2023-04-03T00:52:22;0.47;;;0.20;;
38940;SDS011;43236;47.208;7.518;2023-04-03T00:55:12;1.25;;;0.30;;
38940;SDS011;43236;47.208;7.518;2023-04-03T00:58:00;0.55;;;0.10;;
38940;SDS011;43236;47.208;7.518;2023-04-03T01:00:49;0.10;;;0.10;;
38940;SDS011;43236;47.208;7.518;2023-04-03T01:03:42;0.17;;;0.17;;
38940;SDS011;43236;47.208;7.518;2023-04-03T01:06:31;1.55;;;0.20;;
38940;SDS011;43236;47.208;7.518;2023-04-03T01:09:21;0.15;;;0.10;;
38940;SDS011;43236;47.208;7.518;2023-04-03T01:12:12;0.17;;;0.17;;
38940;SDS011;43236;47.208;7.518;2023-04-03T01:15:02;0.52;;;0.10;;
38940;SDS011;43236;47.208;7.518;2023-04-03T01:17:53;0.22;;;0.10;;
38940;SDS011;43236;47.208;7.518;2023-04-03T01:21:04;0.10;;;0.10;;
38940;SDS011;43236;47.208;7.518;2023-04-03T01:24:18;2.28;;;0.10;;
38940;SDS011;43236;47.208;7.518;2023-04-03T01:27:20;0.10;;;0.10;;
38940;SDS011;43236;47.208;7.518;2023-04-03T01:30:07;0.35;;;0.20;;
38940;SDS011;43236;47.208;7.518;2023-04-03T01:32:57;0.40;;;0.20;;
38940;SDS011;43236;47.208;7.518;2023-04-03T01:35:44;0.30;;;0.20;;
38940;SDS011;43236;47.208;7.518;2023-04-03T01:38:31;0.20;;;0.20;;
38940;SDS011;43236;47.208;7.518;2023-04-03T01:41:18;0.10;;;0.10;;
38940;SDS011;43236;47.208;7.518;2023-04-03T01:44:07;1.15;;;0.20;;
38940;SDS011;43236;47.208;7.518;2023-04-03T01:46:54;0.35;;;0.28;;
38940;SDS011;43236;47.208;7.518;2023-04-03T01:49:43;0.70;;;0.30;;
38940;SDS011;43236;47.208;7.518;2023-04-03T01:52:30;0.40;;;0.30;;
38940;SDS011;43236;47.208;7.518;2023-04-03T01:55:17;0.88;;;0.47;;
38940;SDS011;43236;47.208;7.518;2023-04-03T01:58:04;1.80;;;0.50;;
38940;SDS011;43236;47.208;7.518;2023-04-03T02:00:51;0.60;;;0.30;;
38940;SDS011;43236;47.208;7.518;2023-04-03T02:03:39;0.60;;;0.40;;
38940;SDS011;43236;47.208;7.518;2023-04-03T02:06:28;1.30;;;0.57;;
38940;SDS011;43236;47.208;7.518;2023-04-03T02:09:15;2.00;;;1.10;;
38940;SDS011;43236;47.208;7.518;2023-04-03T02:12:02;2.13;;;1.13;;
38940;SDS011;43236;47.208;7.518;2023-04-03T02:14:49;3.42;;;1.10;;
38940;SDS011;43236;47.208;7.518;2023-04-03T02:17:36;5.22;;;1.40;;
38940;SDS011;43236;47.208;7.518;2023-04-03T02:20:23;3.13;;;1.35;;
38940;SDS011;43236;47.208;7.518;2023-04-03T02:23:11;3.60;;;1.02;;
38940;SDS011;43236;47.208;7.518;2023-04-03T02:26:02;4.15;;;1.67;;
38940;SDS011;43236;47.208;7.518;2023-04-03T02:28:53;3.08;;;1.70;;
38940;SDS011;43236;47.208;7.518;2023-04-03T02:31:40;4.22;;;2.15;;
38940;SDS011;43236;47.208;7.518;2023-04-03T02:34:27;3.53;;;1.98;;
38940;SDS011;43236;47.208;7.518;2023-04-03T02:37:14;3.13;;;1.77;;
38940;SDS011;43236;47.208;7.518;2023-04-03T02:40:03;2.92;;;1.67;;
38940;SDS011;43236;47.208;7.518;2023-04-03T02:42:52;3.92;;;2.03;;
38940;SDS011;43236;47.208;7.518;2023-04-03T02:45:39;3.90;;;1.90;;
38940;SDS011;43236;47.208;7.518;2023-04-03T02:48:26;3.58;;;1.90;;
38940;SDS011;43236;47.208;7.518;2023-04-03T02:51:13;3.30;;;1.90;;
38940;SDS011;43236;47.208;7.518;2023-04-03T02:54:00;5.32;;;2.50;;
38940;SDS011;43236;47.208;7.518;2023-04-03T02:56:49;4.60;;;2.30;;
38940;SDS011;43236;47.208;7.518;2023-04-03T02:59:36;4.43;;;2.20;;
38940;SDS011;43236;47.208;7.518;2023-04-03T03:02:25;5.43;;;2.30;;
38940;SDS011;43236;47.208;7.518;2023-04-03T03:05:12;6.53;;;2.70;;
38940;SDS011;43236;47.208;7.518;2023-04-03T03:08:00;4.80;;;2.58;;
38940;SDS011;43236;47.208;7.518;2023-04-03T03:10:47;3.58;;;2.08;;
38940;SDS011;43236;47.208;7.518;2023-04-03T03:13:35;4.70;;;2.78;;
38940;SDS011;43236;47.208;7.518;2023-04-03T03:16:23;4.00;;;2.35;;
38940;SDS011;43236;47.208;7.518;2023-04-03T03:19:10;4.63;;;2.45;;
38940;SDS011;43236;47.208;7.518;2023-04-03T03:21:57;5.60;;;3.00;;
38940;SDS011;43236;47.208;7.518;2023-04-03T03:24:44;5.97;;;2.55;;
38940;SDS011;43236;47.208;7.518;2023-04-03T03:27:31;6.45;;;3.50;;
38940;SDS011;43236;47.208;7.518;2023-04-03T03:30:19;6.82;;;3.10;;
38940;SDS011;43236;47.208;7.518;2023-04-03T03:33:06;6.97;;;3.20;;
38940;SDS011;43236;47.208;7.518;2023-04-03T03:35:53;6.22;;;3.17;;
38940;SDS011;43236;47.208;7.518;2023-04-03T03:38:40;6.95;;;3.72;;
38940;SDS011;43236;47.208;7.518;2023-04-03T03:41:27;5.97;;;2.90;;
38940;SDS011;43236;47.208;7.518;2023-04-03T03:44:14;5.97;;;3.38;;
38940;SDS011;43236;47.208;7.518;2023-04-03T03:47:03;8.00;;;3.40;;
38940;SDS011;43236;47.208;7.518;2023-04-03T03:49:51;6.68;;;3.45;;
38940;SDS011;43236;47.208;7.518;2023-04-03T03:52:38;6.07;;;3.60;;
38940;SDS011;43236;47.208;7.518;2023-04-03T03:55:25;5.32;;;3.38;;
38940;SDS011;43236;47.208;7.518;2023-04-03T03:58:12;6.05;;;3.25;;
38940;SDS011;43236;47.208;7.518;2023-04-03T04:01:00;6.00;;;3.42;;
38940;SDS011;43236;47.208;7.518;2023-04-03T04:03:49;5.88;;;3.60;;
38940;SDS011;43236;47.208;7.518;2023-04-03T04:06:36;7.28;;;3.40;;
38940;SDS011;43236;47.208;7.518;2023-04-03T04:09:23;5.72;;;3.17;;
38940;SDS011;43236;47.208;7.518;2023-04-03T04:12:10;6.55;;;3.42;;
38940;SDS011;43236;47.208;7.518;2023-04-03T04:14:57;5.85;;;3.55;;
38940;SDS011;43236;47.208;7.518;2023-04-03T04:17:44;6.07;;;3.33;;
38940;SDS011;43236;47.208;7.518;2023-04-03T04:20:32;6.80;;;4.07;;
38940;SDS011;43236;47.208;7.518;2023-04-03T04:23:19;5.47;;;3.45;;
38940;SDS011;43236;47.208;7.518;2023-04-03T04:26:06;5.47;;;3.45;;
38940;SDS011;43236;47.208;7.518;2023-04-03T04:28:53;8.02;;;3.78;;
38940;SDS011;43236;47.208;7.518;2023-04-03T04:31:40;6.20;;;3.55;;
38940;SDS011;43236;47.208;7.518;2023-04-03T04:34:28;7.07;;;4.22;;
38940;SDS011;43236;47.208;7.518;2023-04-03T04:37:16;9.48;;;4.00;;
38940;SDS011;43236;47.208;7.518;2023-04-03T04:40:03;6.90;;;4.00;;
38940;SDS011;43236;47.208;7.518;2023-04-03T04:42:51;8.45;;;4.07;;
38940;SDS011;43236;47.208;7.518;2023-04-03T04:45:39;6.22;;;4.07;;
38940;SDS011;43236;47.208;7.518;2023-04-03T04:48:26;6.80;;;3.88;;
38940;SDS011;43236;47.208;7.518;2023-04-03T04:51:13;6.47;;;3.25;;
38940;SDS011;43236;47.208;7.518;2023-04-03T04:54:01;6.72;;;3.25;;
38940;SDS011;43236;47.208;7.518;2023-04-03T04:56:48;6.20;;;4.03;;
38940;SDS011;43236;47.208;7.518;2023-04-03T04:59:35;5.85;;;3.65;;
38940;SDS011;43236;47.208;7.518;2023-04-03T05:02:23;7.75;;;3.92;;
38940;SDS011;43236;47.208;7.518;2023-04-03T05:05:09;5.63;;;3.22;;
38940;SDS011;43236;47.208;7.518;2023-04-03T05:07:56;8.23;;;3.85;;
38940;SDS011;43236;47.208;7.518;2023-04-03T05:10:45;6.10;;;3.65;;
38940;SDS011;43236;47.208;7.518;2023-04-03T05:13:32;7.72;;;3.63;;
38940;SDS011;43236;47.208;7.518;2023-04-03T05:16:19;7.10;;;4.07;;
38940;SDS011;43236;47.208;7.518;2023-04-03T05:19:06;6.80;;;3.80;;
38940;SDS011;43236;47.208;7.518;2023-04-03T05:21:54;7.15;;;3.83;;
38940;SDS011;43236;47.208;7.518;2023-04-03T05:24:41;7.72;;;4.00;;
38940;SDS011;43236;47.208;7.518;2023-04-03T05:27:29;6.00;;;3.80;;
38940;SDS011;43236;47.208;7.518;2023-04-03T05:30:16;7.50;;;3.65;;
38940;SDS011;43236;47.208;7.518;2023-04-03T05:33:03;9.73;;;4.45;;
38940;SDS011;43236;47.208;7.518;2023-04-03T05:35:51;7.28;;;4.35;;
38940;SDS011;43236;47.208;7.518;2023-04-03T05:38:38;7.40;;;4.43;;
38940;SDS011;43236;47.208;7.518;2023-04-03T05:41:26;8.25;;;4.65;;
38940;SDS011;43236;47.208;7.518;2023-04-03T05:44:14;8.52;;;4.68;;
38940;SDS011;43236;47.208;7.518;2023-04-03T05:47:01;8.93;;;4.60;;
38940;SDS011;43236;47.208;7.518;2023-04-03T05:49:48;7.70;;;4.35;;
38940;SDS011;43236;47.208;7.518;2023-04-03T05:52:36;8.50;;;4.90;;
38940;SDS011;43236;47.208;7.518;2023-04-03T05:55:24;8.23;;;4.57;;
38940;SDS011;43236;47.208;7.518;2023-04-03T05:58:12;10.10;;;5.25;;
38940;SDS011;43236;47.208;7.518;2023-04-03T06:01:00;10.20;;;5.22;;
38940;SDS011;43236;47.208;7.518;2023-04-03T06:03:47;9.30;;;5.20;;
38940;SDS011;43236;47.208;7.518;2023-04-03T06:06:44;9.18;;;5.70;;
38940;SDS011;43236;47.208;7.518;2023-04-03T06:09:33;9.65;;;5.18;;
38940;SDS011;43236;47.208;7.518;2023-04-03T06:12:20;8.55;;;5.05;;
38940;SDS011;43236;47.208;7.518;2023-04-03T06:15:08;8.85;;;5.50;;
38940;SDS011;43236;47.208;7.518;2023-04-03T06:17:58;10.30;;;6.05;;
38940;SDS011;43236;47.208;7.518;2023-04-03T06:20:45;11.43;;;5.97;;
38940;SDS011;43236;47.208;7.518;2023-04-03T06:23:32;10.10;;;5.88;;
38940;SDS011;43236;47.208;7.518;2023-04-03T06:26:20;11.20;;;5.60;;
38940;SDS011;43236;47.208;7.518;2023-04-03T06:29:07;9.88;;;5.25;;
38940;SDS011;43236;47.208;7.518;2023-04-03T06:31:54;9.75;;;6.07;;
38940;SDS011;43236;47.208;7.518;2023-04-03T06:34:44;12.07;;;6.53;;
38940;SDS011;43236;47.208;7.518;2023-04-03T06:37:32;12.45;;;6.18;;
38940;SDS011;43236;47.208;7.518;2023-04-03T06:40:20;9.82;;;5.65;;
38940;SDS011;43236;47.208;7.518;2023-04-03T06:43:09;10.73;;;6.22;;
38940;SDS011;43236;47.208;7.518;2023-04-03T06:45:56;11.52;;;6.78;;
38940;SDS011;43236;47.208;7.518;2023-04-03T06:48:44;9.57;;;5.88;;
38940;SDS011;43236;47.208;7.518;2023-04-03T06:51:33;10.25;;;6.38;;
38940;SDS011;43236;47.208;7.518;2023-04-03T06:54:20;12.65;;;6.90;;
38940;SDS011;43236;47.208;7.518;2023-04-03T06:57:07;11.70;;;6.43;;
38940;SDS011;43236;47.208;7.518;2023-04-03T06:59:54;10.65;;;6.55;;
38940;SDS011;43236;47.208;7.518;2023-04-03T07:02:41;9.02;;;5.70;;
38940;SDS011;43236;47.208;7.518;2023-04-03T07:05:29;10.55;;;6.20;;
38940;SDS011;43236;47.208;7.518;2023-04-03T07:08:18;11.82;;;6.45;;
38940;SDS011;43236;47.208;7.518;2023-04-03T07:11:05;10.65;;;6.18;;
38940;SDS011;43236;47.208;7.518;2023-04-03T07:13:52;11.68;;;6.75;;
38940;SDS011;43236;47.208;7.518;2023-04-03T07:16:40;10.48;;;5.90;;
38940;SDS011;43236;47.208;7.518;2023-04-03T07:19:27;10.65;;;6.25;;
38940;SDS011;43236;47.208;7.518;2023-04-03T07:22:14;9.65;;;5.57;;
38940;SDS011;43236;47.208;7.518;2023-04-03T07:25:03;10.38;;;5.97;;
38940;SDS011;43236;47.208;7.518;2023-04-03T07:27:52;11.23;;;5.70;;
38940;SDS011;43236;47.208;7.518;2023-04-03T07:30:43;8.82;;;5.22;;
38940;SDS011;43236;47.208;7.518;2023-04-03T07:33:31;12.55;;;5.05;;
38940;SDS011;43236;47.208;7.518;2023-04-03T07:36:20;8.13;;;4.78;;
38940;SDS011;43236;47.208;7.518;2023-04-03T07:39:08;8.57;;;4.35;;
38940;SDS011;43236;47.208;7.518;2023-04-03T07:41:57;7.88;;;4.13;;
38940;SDS011;43236;47.208;7.518;2023-04-03T07:44:45;7.78;;;3.92;;
38940;SDS011;43236;47.208;7.518;2023-04-03T07:47:32;6.70;;;4.03;;
38940;SDS011;43236;47.208;7.518;2023-04-03T07:50:19;7.53;;;3.90;;
38940;SDS011;43236;47.208;7.518;2023-04-03T07:53:07;6.53;;;3.97;;
38940;SDS011;43236;47.208;7.518;2023-04-03T07:55:54;12.57;;;4.03;;
38940;SDS011;43236;47.208;7.518;2023-04-03T07:58:44;7.70;;;3.92;;
38940;SDS011;43236;47.208;7.518;2023-04-03T08:01:31;7.50;;;3.72;;
38940;SDS011;43236;47.208;7.518;2023-04-03T08:04:19;11.32;;;4.50;;
38940;SDS011;43236;47.208;7.518;2023-04-03T08:07:06;7.07;;;3.60;;
38940;SDS011;43236;47.208;7.518;2023-04-03T08:09:53;6.60;;;3.80;;
38940;SDS011;43236;47.208;7.518;2023-04-03T08:12:40;6.15;;;3.42;;
38940;SDS011;43236;47.208;7.518;2023-04-03T08:15:29;6.47;;;3.25;;
38940;SDS011;43236;47.208;7.518;2023-04-03T08:18:16;5.63;;;3.00;;
38940;SDS011;43236;47.208;7.518;2023-04-03T08:21:05;6.75;;;3.45;;
38940;SDS011;43236;47.208;7.518;2023-04-03T08:23:53;7.53;;;2.70;;
38940;SDS011;43236;47.208;7.518;2023-04-03T08:26:41;6.80;;;3.05;;
38940;SDS011;43236;47.208;7.518;2023-04-03T08:29:28;5.35;;;3.03;;
38940;SDS011;43236;47.208;7.518;2023-04-03T08:32:17;5.65;;;3.15;;
38940;SDS011;43236;47.208;7.518;2023-04-03T08:35:04;5.35;;;2.95;;
38940;SDS011;43236;47.208;7.518;2023-04-03T08:37:52;6.07;;;3.10;;
38940;SDS011;43236;47.208;7.518;2023-04-03T08:40:39;5.18;;;2.90;;
38940;SDS011;43236;47.208;7.518;2023-04-03T08:43:29;5.85;;;2.95;;
38940;SDS011;43236;47.208;7.518;2023-04-03T08:46:23;6.30;;;2.97;;
38940;SDS011;43236;47.208;7.518;2023-04-03T08:49:21;6.75;;;3.28;;
38940;SDS011;43236;47.208;7.518;2023-04-03T08:52:13;7.43;;;3.35;;
38940;SDS011;43236;47.208;7.518;2023-04-03T08:55:05;5.68;;;3.10;;
38940;SDS011;43236;47.208;7.518;2023-04-03T08:57:59;6.43;;;3.05;;
38940;SDS011;43236;47.208;7.518;2023-04-03T09:00:49;5.40;;;3.08;;
38940;SDS011;43236;47.208;7.518;2023-04-03T09:03:38;7.82;;;3.33;;
38940;SDS011;43236;47.208;7.518;2023-04-03T09:06:29;5.75;;;2.97;;
38940;SDS011;43236;47.208;7.518;2023-04-03T09:09:23;11.50;;;2.97;;
38940;SDS011;43236;47.208;7.518;2023-04-03T09:12:18;5.65;;;3.35;;
38940;SDS011;43236;47.208;7.518;2023-04-03T09:15:16;5.72;;;3.15;;
38940;SDS011;43236;47.208;7.518;2023-04-03T09:18:05;6.85;;;2.80;;
38940;SDS011;43236;47.208;7.518;2023-04-03T09:21:01;6.80;;;3.00;;
38940;SDS011;43236;47.208;7.518;2023-04-03T09:26:48;10.23;;;3.00;;
38940;SDS011;43236;47.208;7.518;2023-04-03T09:29:40;5.07;;;2.77;;
38940;SDS011;43236;47.208;7.518;2023-04-03T09:32:31;6.68;;;2.90;;
38940;SDS011;43236;47.208;7.518;2023-04-03T09:35:21;4.70;;;2.83;;
38940;SDS011;43236;47.208;7.518;2023-04-03T09:38:15;4.70;;;2.50;;
38940;SDS011;43236;47.208;7.518;2023-04-03T09:41:06;5.78;;;2.50;;
38940;SDS011;43236;47.208;7.518;2023-04-03T09:44:00;4.40;;;2.55;;
38940;SDS011;43236;47.208;7.518;2023-04-03T09:46:47;4.82;;;2.55;;
38940;SDS011;43236;47.208;7.518;2023-04-03T09:49:34;4.63;;;2.70;;
38940;SDS011;43236;47.208;7.518;2023-04-03T09:52:22;6.60;;;2.70;;
38940;SDS011;43236;47.208;7.518;2023-04-03T09:55:13;4.07;;;2.50;;
38940;SDS011;43236;47.208;7.518;2023-04-03T09:58:04;4.75;;;2.40;;
38940;SDS011;43236;47.208;7.518;2023-04-03T10:01:20;5.43;;;2.78;;
38940;SDS011;43236;47.208;7.518;2023-04-03T10:04:12;4.68;;;2.85;;
38940;SDS011;43236;47.208;7.518;2023-04-03T10:07:00;4.88;;;2.92;;
38940;SDS011;43236;47.208;7.518;2023-04-03T10:09:54;4.82;;;2.58;;
38940;SDS011;43236;47.208;7.518;2023-04-03T10:12:42;5.32;;;2.60;;
38940;SDS011;43236;47.208;7.518;2023-04-03T10:15:31;4.35;;;2.33;;
38940;SDS011;43236;47.208;7.518;2023-04-03T10:18:28;4.78;;;2.40;;
38940;SDS011;43236;47.208;7.518;2023-04-03T10:21:19;5.63;;;2.35;;
38940;SDS011;43236;47.208;7.518;2023-04-03T10:24:17;4.07;;;2.35;;
38940;SDS011;43236;47.208;7.518;2023-04-03T10:29:59;4.22;;;2.40;;
38940;SDS011;43236;47.208;7.518;2023-04-03T10:33:00;3.53;;;1.85;;
38940;SDS011;43236;47.208;7.518;2023-04-03T10:36:00;4.70;;;2.20;;
38940;SDS011;43236;47.208;7.518;2023-04-03T10:38:58;3.90;;;1.90;;
38940;SDS011;43236;47.208;7.518;2023-04-03T10:41:53;5.90;;;2.30;;
38940;SDS011;43236;47.208;7.518;2023-04-03T10:44:54;3.85;;;2.22;;
38940;SDS011;43236;47.208;7.518;2023-04-03T10:47:51;4.30;;;2.42;;
38940;SDS011;43236;47.208;7.518;2023-04-03T10:50:50;5.47;;;2.60;;
38940;SDS011;43236;47.208;7.518;2023-04-03T10:53:43;4.10;;;2.08;;
38940;SDS011;43236;47.208;7.518;2023-04-03T10:56:39;4.93;;;2.33;;
38940;SDS011;43236;47.208;7.518;2023-04-03T10:59:30;4.13;;;2.17;;
38940;SDS011;43236;47.208;7.518;2023-04-03T11:02:22;4.20;;;2.08;;
38940;SDS011;43236;47.208;7.518;2023-04-03T11:05:14;4.53;;;2.30;;
38940;SDS011;43236;47.208;7.518;2023-04-03T11:08:09;6.82;;;1.60;;
38940;SDS011;43236;47.208;7.518;2023-04-03T11:11:02;3.88;;;2.00;;
38940;SDS011;43236;47.208;7.518;2023-04-03T11:13:53;4.03;;;1.90;;
38940;SDS011;43236;47.208;7.518;2023-04-03T11:16:46;4.72;;;2.15;;
38940;SDS011;43236;47.208;7.518;2023-04-03T11:19:36;4.00;;;1.98;;
38940;SDS011;43236;47.208;7.518;2023-04-03T11:22:29;4.78;;;2.13;;
38940;SDS011;43236;47.208;7.518;2023-04-03T11:25:22;4.35;;;1.63;;
38940;SDS011;43236;47.208;7.518;2023-04-03T11:28:11;3.97;;;1.63;;
38940;SDS011;43236;47.208;7.518;2023-04-03T11:31:02;3.72;;;1.98;;
38940;SDS011;43236;47.208;7.518;2023-04-03T11:34:06;4.82;;;1.60;;
38940;SDS011;43236;47.208;7.518;2023-04-03T11:37:01;4.43;;;1.70;;
38940;SDS011;43236;47.208;7.518;2023-04-03T11:39:57;3.75;;;1.85;;
38940;SDS011;43236;47.208;7.518;2023-04-03T11:42:49;4.00;;;1.98;;
38940;SDS011;43236;47.208;7.518;2023-04-03T11:45:49;3.72;;;1.80;;
38940;SDS011;43236;47.208;7.518;2023-04-03T11:48:48;3.28;;;1.83;;
38940;SDS011;43236;47.208;7.518;2023-04-03T11:51:42;2.72;;;1.58;;
38940;SDS011;43236;47.208;7.518;2023-04-03T11:54:45;3.45;;;2.08;;
38940;SDS011;43236;47.208;7.518;2023-04-03T12:01:05;5.95;;;2.30;;
38940;SDS011;43236;47.208;7.518;2023-04-03T12:04:03;3.60;;;2.05;;
38940;SDS011;43236;47.208;7.518;2023-04-03T12:10:12;3.85;;;1.77;;
38940;SDS011;43236;47.208;7.518;2023-04-03T12:13:13;6.07;;;2.10;;
38940;SDS011;43236;47.208;7.518;2023-04-03T12:16:03;4.10;;;2.00;;
38940;SDS011;43236;47.208;7.518;2023-04-03T12:18:55;4.28;;;1.85;;
38940;SDS011;43236;47.208;7.518;2023-04-03T12:24:56;3.15;;;1.77;;
38940;SDS011;43236;47.208;7.518;2023-04-03T12:27:43;4.47;;;1.88;;
38940;SDS011;43236;47.208;7.518;2023-04-03T12:30:31;3.42;;;1.65;;
38940;SDS011;43236;47.208;7.518;2023-04-03T12:33:24;3.55;;;1.90;;
38940;SDS011;43236;47.208;7.518;2023-04-03T12:36:22;3.22;;;1.50;;
38940;SDS011;43236;47.208;7.518;2023-04-03T12:39:18;3.58;;;1.50;;
38940;SDS011;43236;47.208;7.518;2023-04-03T12:42:41;5.72;;;1.75;;
38940;SDS011;43236;47.208;7.518;2023-04-03T12:45:44;4.22;;;1.90;;
38940;SDS011;43236;47.208;7.518;2023-04-03T12:48:37;3.15;;;1.67;;
38940;SDS011;43236;47.208;7.518;2023-04-03T12:51:34;4.10;;;1.80;;
38940;SDS011;43236;47.208;7.518;2023-04-03T12:54:26;4.03;;;1.88;;
38940;SDS011;43236;47.208;7.518;2023-04-03T12:57:18;3.13;;;1.70;;
38940;SDS011;43236;47.208;7.518;2023-04-03T13:00:19;3.13;;;1.60;;
38940;SDS011;43236;47.208;7.518;2023-04-03T13:03:23;3.78;;;1.67;;
38940;SDS011;43236;47.208;7.518;2023-04-03T13:06:14;4.33;;;2.17;;
38940;SDS011;43236;47.208;7.518;2023-04-03T13:09:05;3.17;;;1.65;;
38940;SDS011;43236;47.208;7.518;2023-04-03T13:12:09;2.88;;;1.50;;
38940;SDS011;43236;47.208;7.518;2023-04-03T13:14:59;3.80;;;1.77;;
38940;SDS011;43236;47.208;7.518;2023-04-03T13:17:49;4.03;;;1.60;;
38940;SDS011;43236;47.208;7.518;2023-04-03T13:20:39;3.28;;;1.60;;
38940;SDS011;43236;47.208;7.518;2023-04-03T13:23:26;3.22;;;1.70;;
38940;SDS011;43236;47.208;7.518;2023-04-03T13:26:14;2.38;;;1.40;;
38940;SDS011;43236;47.208;7.518;2023-04-03T13:29:04;3.38;;;1.50;;
38940;SDS011;43236;47.208;7.518;2023-04-03T13:31:53;3.42;;;1.67;;
38940;SDS011;43236;47.208;7.518;2023-04-03T13:34:42;3.78;;;1.63;;
38940;SDS011;43236;47.208;7.518;2023-04-03T13:37:32;3.30;;;1.52;;
38940;SDS011;43236;47.208;7.518;2023-04-03T13:40:20;2.90;;;1.60;;
38940;SDS011;43236;47.208;7.518;2023-04-03T13:43:16;3.03;;;1.58;;
38940;SDS011;43236;47.208;7.518;2023-04-03T13:46:20;4.93;;;2.05;;
38940;SDS011;43236;47.208;7.518;2023-04-03T13:49:18;3.80;;;1.75;;
38940;SDS011;43236;47.208;7.518;2023-04-03T13:52:21;3.15;;;1.75;;
38940;SDS011;43236;47.208;7.518;2023-04-03T13:55:22;3.20;;;1.80;;
38940;SDS011;43236;47.208;7.518;2023-04-03T13:58:20;3.03;;;1.60;;
38940;SDS011;43236;47.208;7.518;2023-04-03T14:01:14;4.68;;;1.50;;
38940;SDS011;43236;47.208;7.518;2023-04-03T14:04:10;3.33;;;1.60;;
38940;SDS011;43236;47.208;7.518;2023-04-03T14:07:00;2.58;;;1.30;;
38940;SDS011;43236;47.208;7.518;2023-04-03T14:09:47;2.45;;;1.40;;
38940;SDS011;43236;47.208;7.518;2023-04-03T14:12:37;3.25;;;1.50;;
38940;SDS011;43236;47.208;7.518;2023-04-03T14:15:26;3.83;;;1.88;;
38940;SDS011;43236;47.208;7.518;2023-04-03T14:18:15;3.40;;;1.58;;
38940;SDS011;43236;47.208;7.518;2023-04-03T14:21:03;3.55;;;1.55;;
38940;SDS011;43236;47.208;7.518;2023-04-03T14:23:50;2.95;;;1.65;;
38940;SDS011;43236;47.208;7.518;2023-04-03T14:26:37;4.05;;;1.55;;
38940;SDS011;43236;47.208;7.518;2023-04-03T14:29:26;3.25;;;1.70;;
38940;SDS011;43236;47.208;7.518;2023-04-03T14:32:13;3.65;;;1.60;;
38940;SDS011;43236;47.208;7.518;2023-04-03T14:35:03;3.35;;;1.73;;
38940;SDS011;43236;47.208;7.518;2023-04-03T14:37:50;3.92;;;1.80;;
38940;SDS011;43236;47.208;7.518;2023-04-03T14:40:38;2.42;;;1.38;;
38940;SDS011;43236;47.208;7.518;2023-04-03T14:43:26;2.92;;;1.75;;
38940;SDS011;43236;47.208;7.518;2023-04-03T14:46:15;3.08;;;1.65;;
38940;SDS011;43236;47.208;7.518;2023-04-03T14:49:05;3.90;;;1.50;;
38940;SDS011;43236;47.208;7.518;2023-04-03T14:51:58;2.10;;;1.10;;
38940;SDS011;43236;47.208;7.518;2023-04-03T14:54:46;2.60;;;1.35;;
38940;SDS011;43236;47.208;7.518;2023-04-03T14:57:34;4.22;;;1.80;;
38940;SDS011;43236;47.208;7.518;2023-04-03T15:00:21;3.45;;;1.50;;
38940;SDS011;43236;47.208;7.518;2023-04-03T15:03:13;4.03;;;1.77;;
38940;SDS011;43236;47.208;7.518;2023-04-03T15:06:01;4.68;;;1.70;;
38940;SDS011;43236;47.208;7.518;2023-04-03T15:08:48;3.17;;;1.70;;
38940;SDS011;43236;47.208;7.518;2023-04-03T15:11:35;3.97;;;1.45;;
38940;SDS011;43236;47.208;7.518;2023-04-03T15:14:22;3.83;;;1.50;;
38940;SDS011;43236;47.208;7.518;2023-04-03T15:17:10;4.25;;;1.63;;
38940;SDS011;43236;47.208;7.518;2023-04-03T15:20:05;4.05;;;1.85;;
38940;SDS011;43236;47.208;7.518;2023-04-03T15:22:59;3.50;;;1.52;;
38940;SDS011;43236;47.208;7.518;2023-04-03T15:25:47;2.60;;;1.40;;
38940;SDS011;43236;47.208;7.518;2023-04-03T15:28:36;4.50;;;1.70;;
38940;SDS011;43236;47.208;7.518;2023-04-03T15:31:25;4.85;;;1.52;;
38940;SDS011;43236;47.208;7.518;2023-04-03T15:34:12;4.30;;;1.92;;
38940;SDS011;43236;47.208;7.518;2023-04-03T15:37:00;8.48;;;1.80;;
38940;SDS011;43236;47.208;7.518;2023-04-03T15:39:48;5.38;;;2.10;;
38940;SDS011;43236;47.208;7.518;2023-04-03T15:42:34;3.05;;;1.67;;
38940;SDS011;43236;47.208;7.518;2023-04-03T15:45:22;6.05;;;2.33;;
38940;SDS011;43236;47.208;7.518;2023-04-03T15:48:09;3.22;;;1.65;;
38940;SDS011;43236;47.208;7.518;2023-04-03T15:50:56;3.60;;;2.00;;
38940;SDS011;43236;47.208;7.518;2023-04-03T15:53:45;3.95;;;1.77;;
38940;SDS011;43236;47.208;7.518;2023-04-03T15:56:32;3.00;;;1.73;;
38940;SDS011;43236;47.208;7.518;2023-04-03T15:59:19;5.53;;;2.00;;
38940;SDS011;43236;47.208;7.518;2023-04-03T16:02:06;4.07;;;1.70;;
38940;SDS011;43236;47.208;7.518;2023-04-03T16:04:58;3.00;;;1.67;;
38940;SDS011;43236;47.208;7.518;2023-04-03T16:07:45;3.40;;;1.80;;
38940;SDS011;43236;47.208;7.518;2023-04-03T16:10:34;4.07;;;1.83;;
38940;SDS011;43236;47.208;7.518;2023-04-03T16:13:22;5.75;;;1.98;;
38940;SDS011;43236;47.208;7.518;2023-04-03T16:16:09;5.20;;;2.20;;
38940;SDS011;43236;47.208;7.518;2023-04-03T16:18:56;4.53;;;2.20;;
38940;SDS011;43236;47.208;7.518;2023-04-03T16:21:43;5.10;;;1.90;;
38940;SDS011;43236;47.208;7.518;2023-04-03T16:24:31;5.78;;;2.40;;
38940;SDS011;43236;47.208;7.518;2023-04-03T16:27:20;4.95;;;2.30;;
38940;SDS011;43236;47.208;7.518;2023-04-03T16:30:14;3.30;;;1.77;;
38940;SDS011;43236;47.208;7.518;2023-04-03T16:33:01;4.00;;;1.95;;
38940;SDS011;43236;47.208;7.518;2023-04-03T16:35:48;3.83;;;1.77;;
38940;SDS011;43236;47.208;7.518;2023-04-03T16:38:37;5.68;;;2.20;;
38940;SDS011;43236;47.208;7.518;2023-04-03T16:41:24;3.40;;;1.77;;
38940;SDS011;43236;47.208;7.518;2023-04-03T16:44:12;5.03;;;1.70;;
38940;SDS011;43236;47.208;7.518;2023-04-03T16:47:00;3.95;;;1.77;;
38940;SDS011;43236;47.208;7.518;2023-04-03T16:49:47;5.15;;;1.80;;
38940;SDS011;43236;47.208;7.518;2023-04-03T16:52:34;3.03;;;1.67;;
38940;SDS011;43236;47.208;7.518;2023-04-03T16:55:21;4.05;;;1.80;;
38940;SDS011;43236;47.208;7.518;2023-04-03T16:58:08;4.75;;;1.80;;
38940;SDS011;43236;47.208;7.518;2023-04-03T17:00:56;5.05;;;1.98;;
38940;SDS011;43236;47.208;7.518;2023-04-03T17:03:43;5.18;;;2.00;;
38940;SDS011;43236;47.208;7.518;2023-04-03T17:06:31;4.75;;;1.83;;
38940;SDS011;43236;47.208;7.518;2023-04-03T17:09:18;4.60;;;1.70;;
38940;SDS011;43236;47.208;7.518;2023-04-03T17:12:06;3.35;;;1.60;;
38940;SDS011;43236;47.208;7.518;2023-04-03T17:14:53;4.15;;;1.67;;
38940;SDS011;43236;47.208;7.518;2023-04-03T17:17:41;3.75;;;1.83;;